createdAt,value
2018-06-22T00:01:46.937Z,12.30
2018-06-22T00:04:14.980Z,12.26
2018-06-22T00:06:43.041Z,12.22
2018-06-22T00:09:11.608Z,12.20
2018-06-22T00:11:39.796Z,12.16
2018-06-22T00:14:08.367Z,12.17
2018-06-22T00:16:36.516Z,12.17
2018-06-22T00:19:04.620Z,12.13
2018-06-22T00:21:32.658Z,12.16
2018-06-22T00:24:00.707Z,12.17
2018-06-22T00:26:28.795Z,12.16
2018-06-22T00:28:56.841Z,12.17
2018-06-22T00:33:52.011Z,12.09
2018-06-22T00:36:20.048Z,12.07
2018-06-22T00:38:48.092Z,12.03
2018-06-22T00:41:16.134Z,12.03
2018-06-22T00:43:44.187Z,12.04
2018-06-22T00:46:12.229Z,12.04
2018-06-22T00:48:40.273Z,12.01
2018-06-22T00:51:08.319Z,11.98
2018-06-22T00:53:47.728Z,11.97
2018-06-22T00:56:15.763Z,11.99
2018-06-22T00:58:43.796Z,12.00
2018-06-22T01:01:11.839Z,11.99
2018-06-22T01:03:39.906Z,11.98
2018-06-22T01:06:07.953Z,12.02
2018-06-22T01:08:36.044Z,12.05
2018-06-22T01:11:04.124Z,12.08
2018-06-22T01:13:32.200Z,12.05
2018-06-22T01:16:00.244Z,12.07
2018-06-22T01:18:28.289Z,12.11
2018-06-22T01:20:56.323Z,12.10
2018-06-22T01:23:24.355Z,12.08
2018-06-22T01:25:52.456Z,12.07
2018-06-22T01:28:20.508Z,12.09
2018-06-22T01:30:48.563Z,12.11
2018-06-22T01:33:16.596Z,12.06
2018-06-22T01:35:44.635Z,12.04
2018-06-22T01:38:12.664Z,12.02
2018-06-22T01:40:40.703Z,11.99
2018-06-22T01:43:08.758Z,11.94
2018-06-22T01:45:36.796Z,11.96
2018-06-22T01:48:04.865Z,11.93
2018-06-22T01:50:32.899Z,11.93
2018-06-22T01:53:00.924Z,11.91
2018-06-22T01:55:28.960Z,11.88
2018-06-22T01:57:57.019Z,11.91
2018-06-22T02:00:25.065Z,11.91
2018-06-22T02:02:53.088Z,11.95
2018-06-22T02:05:21.139Z,11.98
2018-06-22T02:07:49.177Z,11.99
2018-06-22T02:10:17.192Z,11.95
2018-06-22T02:12:45.270Z,11.96
2018-06-22T02:15:13.312Z,11.96
2018-06-22T02:17:41.356Z,11.96
2018-06-22T02:20:09.410Z,11.96
2018-06-22T02:22:37.452Z,12.00
2018-06-22T02:25:05.500Z,12.02
2018-06-22T02:27:33.563Z,12.04
2018-06-22T02:30:01.603Z,12.06
2018-06-22T02:32:29.629Z,12.09
2018-06-22T02:34:57.656Z,12.04
2018-06-22T02:37:25.784Z,12.01
2018-06-22T02:39:53.830Z,11.95
2018-06-22T02:42:21.868Z,11.93
2018-06-22T02:44:49.895Z,11.97
2018-06-22T02:47:17.933Z,12.02
2018-06-22T02:49:45.966Z,11.95
2018-06-22T02:52:14.000Z,11.92
2018-06-22T02:54:42.020Z,11.85
2018-06-22T02:57:10.059Z,11.70
2018-06-22T02:59:38.099Z,11.67
2018-06-22T03:02:06.165Z,11.63
2018-06-22T03:04:34.192Z,11.54
2018-06-22T03:07:02.225Z,11.55
2018-06-22T03:09:30.276Z,11.57
2018-06-22T03:11:58.322Z,11.55
2018-06-22T03:14:26.353Z,11.56
2018-06-22T03:16:54.481Z,11.57
2018-06-22T03:19:22.522Z,11.60
2018-06-22T03:21:50.552Z,11.63
2018-06-22T03:24:18.581Z,11.67
2018-06-22T03:26:46.604Z,11.71
2018-06-22T03:29:14.649Z,11.73
2018-06-22T03:31:42.676Z,11.76
2018-06-22T03:34:10.741Z,11.74
2018-06-22T03:36:38.772Z,11.74
2018-06-22T03:39:08.237Z,11.74
2018-06-22T03:41:36.265Z,11.76
2018-06-22T03:44:04.299Z,11.79
2018-06-22T03:46:32.324Z,11.82
2018-06-22T03:49:00.397Z,11.82
2018-06-22T03:51:28.490Z,11.82
2018-06-22T03:53:56.520Z,11.82
2018-06-22T03:56:24.588Z,11.81
2018-06-22T03:58:52.620Z,11.81
2018-06-22T04:01:20.648Z,11.83
2018-06-22T04:03:48.712Z,11.83
2018-06-22T04:06:16.732Z,11.82
2018-06-22T04:08:44.775Z,11.87
2018-06-22T04:11:12.808Z,11.90
2018-06-22T04:13:40.839Z,11.94
2018-06-22T04:16:08.860Z,11.97
2018-06-22T04:18:36.944Z,12.01
2018-06-22T04:21:04.976Z,12.05
2018-06-22T04:23:32.992Z,12.07
2018-06-22T04:26:01.039Z,12.07
2018-06-22T04:28:29.098Z,12.05
2018-06-22T04:30:57.159Z,12.05
2018-06-22T04:33:25.204Z,12.07
2018-06-22T04:35:53.268Z,12.09
2018-06-22T04:38:21.294Z,12.13
2018-06-22T04:40:49.340Z,12.18
2018-06-22T04:43:17.356Z,12.22
2018-06-22T04:45:45.389Z,12.26
2018-06-22T04:48:13.415Z,12.29
2018-06-22T04:50:41.467Z,12.30
2018-06-22T04:53:09.521Z,12.30
2018-06-22T04:55:37.553Z,12.28
2018-06-22T04:58:05.580Z,12.27
2018-06-22T05:00:33.617Z,12.22
2018-06-22T05:03:01.642Z,12.20
2018-06-22T05:05:29.690Z,12.22
2018-06-22T05:07:57.784Z,12.23
2018-06-22T05:10:25.837Z,12.23
2018-06-22T05:12:53.864Z,12.26
2018-06-22T05:15:21.896Z,12.30
2018-06-22T05:17:49.936Z,12.37
2018-06-22T05:20:17.951Z,12.42
2018-06-22T05:22:46.023Z,12.42
2018-06-22T05:25:14.070Z,12.47
2018-06-22T05:27:42.100Z,12.52
2018-06-22T05:30:10.150Z,12.58
2018-06-22T05:32:38.183Z,12.61
2018-06-22T05:35:06.224Z,12.64
2018-06-22T05:37:34.264Z,12.62
2018-06-22T05:40:02.288Z,12.62
2018-06-22T05:42:30.341Z,12.68
2018-06-22T05:44:58.376Z,12.72
2018-06-22T05:47:28.329Z,12.78
2018-06-22T05:49:56.376Z,12.85
2018-06-22T05:52:24.439Z,12.98
2018-06-22T05:54:52.478Z,13.04
2018-06-22T05:57:20.536Z,13.06
2018-06-22T05:59:48.572Z,13.10
2018-06-22T06:02:16.625Z,13.16
2018-06-22T06:04:44.656Z,13.15
2018-06-22T06:07:12.707Z,13.15
2018-06-22T06:09:40.736Z,13.21
2018-06-22T06:12:08.805Z,13.26
2018-06-22T06:14:36.860Z,13.24
2018-06-22T06:17:04.967Z,13.24
2018-06-22T06:19:33.000Z,13.23
2018-06-22T06:22:01.039Z,13.23
2018-06-22T06:24:29.072Z,13.23
2018-06-22T06:26:57.120Z,13.24
2018-06-22T06:29:25.180Z,13.28
2018-06-22T06:31:53.236Z,13.25
2018-06-22T06:34:21.296Z,13.28
2018-06-22T06:36:49.317Z,13.30
2018-06-22T06:39:17.364Z,13.35
2018-06-22T06:41:45.516Z,13.36
2018-06-22T06:44:13.561Z,13.40
2018-06-22T06:46:41.619Z,13.43
2018-06-22T06:49:09.648Z,13.46
2018-06-22T06:51:37.700Z,13.49
2018-06-22T06:54:05.753Z,13.54
2018-06-22T06:56:33.804Z,13.61
2018-06-22T06:59:02.195Z,13.67
2018-06-22T07:01:30.479Z,13.73
2018-06-22T07:03:58.573Z,13.83
2018-06-22T07:06:26.620Z,13.94
2018-06-22T07:08:54.720Z,14.06
2018-06-22T07:11:22.767Z,14.10
2018-06-22T07:13:50.849Z,14.13
2018-06-22T07:16:18.883Z,14.32
2018-06-22T07:18:47.158Z,14.64
2018-06-22T07:21:15.204Z,14.89
2018-06-22T07:23:43.274Z,15.02
2018-06-22T07:26:11.359Z,15.05
2018-06-22T07:28:39.416Z,15.02
2018-06-22T07:31:07.719Z,15.06
2018-06-22T07:33:35.777Z,14.99
2018-06-22T07:36:03.902Z,15.04
2018-06-22T07:38:31.912Z,15.15
2018-06-22T07:41:00.000Z,15.24
2018-06-22T07:43:28.061Z,15.31
2018-06-22T07:45:56.112Z,15.47
2018-06-22T07:48:24.169Z,15.65
2018-06-22T07:50:52.241Z,15.72
2018-06-22T07:53:20.312Z,15.80
2018-06-22T07:55:48.356Z,15.89
2018-06-22T07:58:16.417Z,16.01
2018-06-22T08:00:44.466Z,16.46
2018-06-22T08:03:12.524Z,17.13
2018-06-22T08:05:40.592Z,17.73
2018-06-22T08:08:08.682Z,18.06
2018-06-22T08:10:36.841Z,18.31
2018-06-22T08:13:04.909Z,18.45
2018-06-22T08:15:33.009Z,18.63
2018-06-22T08:18:01.182Z,18.92
2018-06-22T08:20:29.230Z,19.16
2018-06-22T08:22:57.348Z,19.62
2018-06-22T08:25:25.478Z,19.99
2018-06-22T08:27:53.556Z,20.21
2018-06-22T08:30:21.621Z,19.99
2018-06-22T08:32:49.672Z,20.01
2018-06-22T08:35:17.741Z,20.25
2018-06-22T08:37:45.812Z,20.32
2018-06-22T08:40:13.873Z,20.49
2018-06-22T08:42:41.921Z,20.77
2018-06-22T08:45:09.978Z,21.00
2018-06-22T08:47:38.035Z,21.19
2018-06-22T08:50:06.129Z,21.32
2018-06-22T08:52:34.220Z,21.58
2018-06-22T08:55:02.292Z,21.69
2018-06-22T08:57:30.357Z,21.71
2018-06-22T08:59:58.420Z,21.83
2018-06-22T09:02:26.475Z,21.94
2018-06-22T09:04:54.540Z,21.94
2018-06-22T09:07:22.637Z,22.06
2018-06-22T09:09:50.715Z,22.20
2018-06-22T09:12:18.780Z,22.42
2018-06-22T09:14:46.877Z,22.49
2018-06-22T09:17:14.936Z,22.44
2018-06-22T09:19:43.086Z,22.20
2018-06-22T09:22:11.113Z,21.90
2018-06-22T09:24:39.185Z,21.65
2018-06-22T09:27:07.251Z,21.95
2018-06-22T09:29:35.344Z,22.33
2018-06-22T09:32:03.449Z,22.63
2018-06-22T09:34:31.524Z,22.76
2018-06-22T09:36:59.581Z,23.05
2018-06-22T09:39:27.656Z,22.95
2018-06-22T09:41:55.706Z,22.33
2018-06-22T09:44:36.949Z,21.96
2018-06-22T09:47:05.189Z,21.56
2018-06-22T09:49:33.281Z,21.40
2018-06-22T09:52:01.357Z,21.80
2018-06-22T09:54:29.421Z,22.21
2018-06-22T09:56:57.498Z,22.58
2018-06-22T09:59:25.603Z,22.92
2018-06-22T10:01:54.536Z,23.17
2018-06-22T10:04:23.431Z,23.21
2018-06-22T10:06:52.028Z,23.40
2018-06-22T10:09:20.086Z,23.25
2018-06-22T10:11:48.203Z,22.76
2018-06-22T10:14:16.268Z,22.42
2018-06-22T10:16:44.341Z,22.28
2018-06-22T10:19:12.391Z,22.39
2018-06-22T10:21:40.467Z,22.36
2018-06-22T10:24:08.528Z,22.64
2018-06-22T10:26:36.592Z,23.18
2018-06-22T10:29:04.671Z,23.56
2018-06-22T10:31:32.776Z,23.61
2018-06-22T10:34:00.863Z,23.87
2018-06-22T10:36:28.957Z,24.20
2018-06-22T10:38:57.020Z,24.51
2018-06-22T10:41:25.109Z,24.29
2018-06-22T10:43:53.176Z,23.91
2018-06-22T10:46:21.252Z,23.31
2018-06-22T10:48:49.315Z,23.17
2018-06-22T10:51:17.404Z,23.37
2018-06-22T10:53:45.465Z,22.87
2018-06-22T10:56:13.538Z,22.20
2018-06-22T10:58:41.621Z,22.12
2018-06-22T11:01:09.708Z,22.40
2018-06-22T11:03:37.856Z,22.77
2018-06-22T11:06:05.921Z,23.21
2018-06-22T11:08:33.969Z,23.09
2018-06-22T11:11:02.032Z,23.43
2018-06-22T11:13:30.106Z,23.36
2018-06-22T11:15:58.153Z,23.31
2018-06-22T11:18:26.317Z,23.16
2018-06-22T11:20:54.293Z,22.82
2018-06-22T11:23:22.361Z,22.58
2018-06-22T11:25:50.433Z,22.91
2018-06-22T11:28:18.513Z,23.22
2018-06-22T11:30:46.624Z,23.08
2018-06-22T11:33:14.631Z,22.87
2018-06-22T11:35:42.785Z,23.06
2018-06-22T11:38:10.793Z,23.57
2018-06-22T11:40:38.844Z,23.85
2018-06-22T11:43:06.904Z,24.09
2018-06-22T11:45:34.960Z,24.16
2018-06-22T11:48:03.016Z,24.10
2018-06-22T11:50:31.182Z,23.87
2018-06-22T11:52:59.235Z,23.82
2018-06-22T11:55:27.284Z,24.06
2018-06-22T11:57:55.354Z,24.16
2018-06-22T12:00:23.399Z,24.09
2018-06-22T12:02:51.491Z,24.04
2018-06-22T12:05:19.578Z,23.52
2018-06-22T12:07:47.663Z,23.18
2018-06-22T12:10:15.711Z,23.00
2018-06-22T12:12:43.756Z,22.75
2018-06-22T12:15:11.829Z,22.49
2018-06-22T12:17:39.900Z,22.39
2018-06-22T12:20:07.944Z,22.48
2018-06-22T12:22:36.004Z,22.64
2018-06-22T12:25:04.085Z,22.87
2018-06-22T12:27:32.252Z,23.00
2018-06-22T12:30:00.317Z,22.83
2018-06-22T12:32:28.660Z,22.14
2018-06-22T12:34:56.719Z,21.90
2018-06-22T12:37:24.792Z,21.56
2018-06-22T12:39:52.921Z,21.50
2018-06-22T12:42:20.965Z,21.43
2018-06-22T12:44:49.036Z,21.36
2018-06-22T12:47:17.086Z,21.47
2018-06-22T12:49:45.220Z,21.39
2018-06-22T12:52:13.314Z,21.14
2018-06-22T12:54:41.380Z,21.03
2018-06-22T12:57:09.448Z,21.31
2018-06-22T12:59:37.535Z,21.60
2018-06-22T13:02:05.788Z,21.56
2018-06-22T13:04:33.884Z,21.37
2018-06-22T13:07:01.940Z,21.21
2018-06-22T13:09:30.083Z,21.27
2018-06-22T13:11:58.076Z,21.17
2018-06-22T13:14:26.131Z,21.07
2018-06-22T13:16:54.240Z,21.30
2018-06-22T13:19:22.304Z,21.41
2018-06-22T13:21:52.565Z,21.48
2018-06-22T13:24:22.014Z,21.76
2018-06-22T13:26:50.087Z,21.68
2018-06-22T13:29:18.159Z,21.90
2018-06-22T13:31:46.265Z,22.00
2018-06-22T13:34:15.421Z,22.01
2018-06-22T13:36:43.791Z,21.77
2018-06-22T13:39:14.257Z,21.33
2018-06-22T13:41:42.706Z,21.02
2018-06-22T13:44:11.080Z,20.92
2018-06-22T13:46:39.867Z,20.74
2018-06-22T13:49:08.755Z,20.38
2018-06-22T13:51:37.338Z,20.31
2018-06-22T13:54:05.402Z,20.28
2018-06-22T13:56:34.295Z,20.46
2018-06-22T13:59:02.672Z,20.68
2018-06-22T14:01:31.575Z,21.09
2018-06-22T14:04:04.944Z,21.19
2018-06-22T14:06:38.456Z,21.34
2018-06-22T14:09:09.938Z,21.46
2018-06-22T14:11:37.969Z,21.62
2018-06-22T14:14:06.027Z,21.39
2018-06-22T14:16:34.168Z,21.26
2018-06-22T14:19:02.328Z,21.23
2018-06-22T14:21:30.384Z,21.36
2018-06-22T14:23:58.640Z,21.40
2018-06-22T14:26:26.677Z,21.40
2018-06-22T14:28:54.740Z,21.35
2018-06-22T14:31:22.783Z,21.54
2018-06-22T14:33:50.833Z,21.70
2018-06-22T14:36:18.892Z,21.75
2018-06-22T14:38:46.964Z,21.82
2018-06-22T14:41:15.028Z,21.89
2018-06-22T14:43:43.083Z,21.64
2018-06-22T14:46:11.157Z,21.55
2018-06-22T14:48:39.202Z,21.44
2018-06-22T14:51:07.292Z,21.44
2018-06-22T14:53:40.740Z,21.50
2018-06-22T14:56:14.086Z,21.34
2018-06-22T14:58:47.477Z,21.05
2018-06-22T15:01:20.912Z,20.97
2018-06-22T15:03:54.460Z,20.73
2018-06-22T15:06:27.947Z,20.57
2018-06-22T15:08:56.017Z,20.62
2018-06-22T15:11:24.093Z,20.62
2018-06-22T15:13:52.151Z,20.73
2018-06-22T15:16:20.219Z,20.62
2018-06-22T15:18:48.627Z,20.43
2018-06-22T15:21:16.715Z,20.23
2018-06-22T15:23:44.780Z,19.80
2018-06-22T15:26:12.840Z,19.47
2018-06-22T15:28:40.896Z,19.26
2018-06-22T15:31:08.956Z,19.06
2018-06-22T15:33:42.461Z,19.13
2018-06-22T15:36:16.054Z,19.46
2018-06-22T15:38:49.550Z,19.73
2018-06-22T15:41:23.066Z,19.56
2018-06-22T15:43:56.576Z,19.45
2018-06-22T15:46:29.997Z,19.36
2018-06-22T15:49:03.533Z,19.33
2018-06-22T15:51:37.062Z,19.13
2018-06-22T15:54:10.594Z,18.97
2018-06-22T15:56:38.619Z,18.90
2018-06-22T15:59:06.779Z,18.87
2018-06-22T16:01:34.838Z,18.74
2018-06-22T16:04:07.064Z,18.54
2018-06-22T16:06:35.119Z,18.40
2018-06-22T16:09:03.881Z,18.38
2018-06-22T16:11:31.947Z,18.27
2018-06-22T16:14:05.285Z,18.30
2018-06-22T16:16:38.693Z,18.30
2018-06-22T16:19:12.242Z,18.32
2018-06-22T16:21:45.561Z,18.39
2018-06-22T16:24:19.064Z,18.28
2018-06-22T16:26:52.458Z,18.18
2018-06-22T16:29:20.500Z,18.08
2018-06-22T16:31:48.548Z,18.05
2018-06-22T16:34:16.600Z,17.96
2018-06-22T16:36:44.664Z,17.96
2018-06-22T16:39:13.801Z,17.92
2018-06-22T16:41:41.849Z,17.83
2018-06-22T16:44:10.460Z,17.72
2018-06-22T16:46:38.500Z,17.70
2018-06-22T16:49:06.588Z,17.63
2018-06-22T16:51:36.719Z,17.63
2018-06-22T16:54:04.860Z,17.57
2018-06-22T16:56:32.923Z,17.76
2018-06-22T16:59:02.501Z,18.16
2018-06-22T17:01:30.841Z,18.71
2018-06-22T17:03:58.900Z,19.24
2018-06-22T17:06:26.957Z,19.57
2018-06-22T17:09:00.470Z,19.47
2018-06-22T17:11:33.848Z,19.28
2018-06-22T17:15:05.964Z,19.21
2018-06-22T17:17:39.494Z,19.49
2018-06-22T17:20:07.573Z,19.78
2018-06-22T17:22:35.655Z,19.93
2018-06-22T17:25:03.724Z,20.05
2018-06-22T17:27:31.794Z,20.14
2018-06-22T17:29:59.893Z,20.04
2018-06-22T17:32:27.957Z,19.90
2018-06-22T17:34:56.033Z,19.97
2018-06-22T17:37:24.089Z,19.86
2018-06-22T17:39:52.156Z,20.01
2018-06-22T17:42:20.213Z,20.17
2018-06-22T17:44:48.288Z,20.24
2018-06-22T17:47:16.368Z,20.29
2018-06-22T17:49:44.436Z,20.44
2018-06-22T17:52:12.488Z,20.52
2018-06-22T17:54:40.571Z,20.45
2018-06-22T17:57:08.632Z,20.45
2018-06-22T17:59:42.017Z,20.30
2018-06-22T18:02:15.368Z,20.23
2018-06-22T18:04:45.580Z,20.04
2018-06-22T18:07:19.220Z,19.86
2018-06-22T18:09:52.782Z,19.90
2018-06-22T18:12:26.289Z,19.89
2018-06-22T18:14:54.452Z,20.04
2018-06-22T18:17:23.545Z,20.31
2018-06-22T18:19:55.415Z,20.43
2018-06-22T18:22:26.546Z,20.16
2018-06-22T18:24:58.596Z,20.06
2018-06-22T18:27:28.131Z,19.94
2018-06-22T18:30:00.853Z,19.39
2018-06-22T18:32:33.982Z,19.33
2018-06-22T18:35:08.921Z,19.52
2018-06-22T18:37:44.927Z,19.53
2018-06-22T18:40:13.578Z,19.65
2018-06-22T18:42:41.796Z,19.82
2018-06-22T18:45:11.145Z,19.68
2018-06-22T18:47:39.416Z,19.65
2018-06-22T18:50:10.461Z,19.86
2018-06-22T18:52:43.938Z,19.96
2018-06-22T18:55:18.303Z,20.18
2018-06-22T18:57:51.855Z,20.33
2018-06-22T19:00:25.239Z,20.29
2018-06-22T19:02:58.687Z,20.35
2018-06-22T19:05:26.692Z,20.23
2018-06-22T19:07:54.741Z,20.10
2018-06-22T19:10:22.814Z,20.01
2018-06-22T19:12:50.882Z,19.94
2018-06-22T19:15:19.203Z,19.97
2018-06-22T19:17:49.060Z,20.10
2018-06-22T19:20:18.508Z,20.20
2018-06-22T19:22:51.492Z,20.07
2018-06-22T19:25:24.379Z,19.87
2018-06-22T19:27:58.577Z,19.64
2018-06-22T19:35:51.707Z,19.34
2018-06-22T19:38:19.765Z,19.22
2018-06-22T19:40:57.213Z,19.22
2018-06-22T19:43:34.124Z,19.31
2018-06-22T19:46:09.076Z,19.39
2018-06-22T19:48:57.310Z,19.53
2018-06-22T19:51:32.338Z,19.54
2018-06-22T19:54:05.546Z,19.45
2018-06-22T19:56:54.891Z,19.23
2018-06-22T19:59:34.494Z,19.13
2018-06-22T20:02:12.319Z,19.12
2018-06-22T20:04:40.383Z,19.31
2018-06-22T20:07:08.468Z,19.32
2018-06-22T20:09:36.525Z,19.40
2018-06-22T20:12:04.732Z,19.44
2018-06-22T20:14:32.988Z,19.38
2018-06-22T20:17:01.054Z,19.44
2018-06-22T20:19:29.136Z,19.29
2018-06-22T20:21:58.226Z,19.27
2018-06-22T20:24:31.858Z,19.08
2018-06-22T20:26:59.973Z,18.56
2018-06-22T20:29:28.139Z,17.89
2018-06-22T20:31:56.340Z,17.34
2018-06-22T20:34:30.562Z,17.01
2018-06-22T20:38:01.613Z,16.56
2018-06-22T20:40:35.152Z,16.12
2018-06-22T20:43:08.705Z,15.83
2018-06-22T20:45:38.993Z,15.59
2018-06-22T20:48:12.565Z,15.41
2018-06-22T20:50:40.779Z,15.30
2018-06-22T20:53:08.845Z,15.21
2018-06-22T20:55:36.945Z,15.08
2018-06-22T20:58:05.076Z,14.97
2018-06-22T21:00:33.124Z,14.85
2018-06-22T21:03:01.194Z,14.76
2018-06-22T21:05:29.239Z,14.72
2018-06-22T21:07:57.309Z,14.72
2018-06-22T21:10:25.386Z,14.63
2018-06-22T21:12:53.529Z,14.60
2018-06-22T21:15:21.497Z,14.57
2018-06-22T21:17:49.656Z,14.58
2018-06-22T21:20:17.691Z,14.57
2018-06-22T21:22:45.799Z,14.51
2018-06-22T21:25:13.819Z,14.48
2018-06-22T21:27:47.328Z,14.47
2018-06-22T21:30:20.821Z,14.46
2018-06-22T21:32:54.369Z,14.44
2018-06-22T21:35:27.744Z,14.44
2018-06-22T21:38:01.203Z,14.46
2018-06-22T21:40:29.276Z,14.42
2018-06-22T21:42:57.351Z,14.37
2018-06-22T21:45:25.448Z,14.36
2018-06-22T21:47:53.491Z,14.38
2018-06-22T21:50:21.552Z,14.30
2018-06-22T21:52:49.623Z,14.31
2018-06-22T21:55:17.689Z,14.27
2018-06-22T21:57:45.748Z,14.24
2018-06-22T22:00:18.501Z,14.23
2018-06-22T22:02:46.510Z,14.19
2018-06-22T22:05:14.557Z,14.20
2018-06-22T22:07:42.629Z,14.21
2018-06-22T22:10:10.675Z,14.24
2018-06-22T22:12:38.733Z,14.25
2018-06-22T22:15:06.812Z,14.18
2018-06-22T22:17:34.865Z,14.14
2018-06-22T22:20:02.912Z,14.17
2018-06-22T22:22:30.965Z,14.14
2018-06-22T22:24:59.016Z,14.17
2018-06-22T22:27:27.073Z,14.16
2018-06-22T22:29:55.103Z,14.12
2018-06-22T22:32:23.172Z,14.12
2018-06-22T22:34:51.208Z,14.11
2018-06-22T22:37:19.251Z,14.08
2018-06-22T22:39:47.304Z,14.07
2018-06-22T22:42:15.350Z,14.08
2018-06-22T22:44:43.405Z,14.06
2018-06-22T22:47:11.445Z,14.03
2018-06-22T22:49:39.511Z,13.97
2018-06-22T22:52:07.625Z,13.93
2018-06-22T22:54:35.674Z,13.89
2018-06-22T22:57:03.719Z,13.88
2018-06-22T22:59:31.773Z,13.87
2018-06-22T23:01:59.815Z,13.90
2018-06-22T23:04:27.863Z,13.88
2018-06-22T23:06:55.916Z,13.85
2018-06-22T23:09:23.985Z,13.85
2018-06-22T23:11:52.037Z,13.81
2018-06-22T23:14:20.093Z,13.80
2018-06-22T23:16:48.136Z,13.80
2018-06-22T23:19:16.186Z,13.78
2018-06-22T23:21:44.236Z,13.79
2018-06-22T23:24:12.289Z,13.78
2018-06-22T23:26:40.329Z,13.71
2018-06-22T23:29:08.385Z,13.71
2018-06-22T23:31:36.426Z,13.70
2018-06-22T23:34:04.501Z,13.67
2018-06-22T23:36:32.541Z,13.61
2018-06-22T23:39:00.596Z,13.58
2018-06-22T23:41:28.644Z,13.61
2018-06-22T23:43:56.696Z,13.62
2018-06-22T23:46:24.730Z,13.63
2018-06-22T23:48:52.783Z,13.66
2018-06-22T23:51:20.844Z,13.72
2018-06-22T23:53:48.896Z,13.74
2018-06-22T23:56:16.947Z,13.74
2018-06-22T23:58:45.002Z,13.71
